Time,TemperatureF,DewpointF,PressureIn,WindDirection,WindDirectionDegrees,WindSpeedMPH,WindSpeedGustMPH,Humidity,HourlyPrecipIn,Conditions,Clouds,dailyrainin,SoftwareType,DateUTC
2013-03-21 00:00:00,36.1,15.8,0.00,NNW,334,0.0,5.0,43,0.00,,,0.00,Weather View 32 v70,2013-03-21 04:00:00,
2013-03-21 00:15:00,36.1,15.8,0.00,North,0,4.0,6.0,43,0.00,,,0.00,Weather View 32 v70,2013-03-21 04:15:00,
2013-03-21 00:23:00,36.1,15.8,0.00,North,0,4.0,6.0,43,0.00,,,0.00,Weather View 32 v70,2013-03-21 04:23:00,
2013-03-21 00:30:00,36.1,15.8,0.00,West,267,3.0,6.0,43,0.00,,,0.00,Weather View 32 v70,2013-03-21 04:30:00,
2013-03-21 00:45:00,35.8,16.5,0.00,NW,322,0.0,6.0,45,0.00,,,0.00,Weather View 32 v70,2013-03-21 04:45:00,
2013-03-21 01:00:00,35.8,17.0,0.00,NW,322,0.0,6.0,46,0.00,,,0.00,Weather View 32 v70,2013-03-21 05:00:00,
2013-03-21 01:15:00,35.4,17.7,0.00,North,353,0.0,6.0,48,0.00,,,0.00,Weather View 32 v70,2013-03-21 05:15:00,
2013-03-21 01:24:00,35.4,17.7,0.00,North,353,0.0,6.0,48,0.00,,,0.00,Weather View 32 v70,2013-03-21 05:24:00,
2013-03-21 01:30:00,35.6,16.8,0.00,North,353,0.0,4.0,46,0.00,,,0.00,Weather View 32 v70,2013-03-21 05:30:00,
2013-03-21 01:45:00,35.2,18.9,0.00,North,357,4.0,5.0,51,0.00,,,0.00,Weather View 32 v70,2013-03-21 05:45:00,
2013-03-21 02:00:00,34.2,22.5,0.00,NW,314,0.0,5.0,62,0.00,,,0.00,Weather View 32 v70,2013-03-21 06:00:00,
2013-03-21 02:15:00,33.6,23.1,0.00,North,10,3.0,5.0,65,0.00,,,0.00,Weather View 32 v70,2013-03-21 06:15:00,
2013-03-21 02:24:00,33.6,23.1,0.00,North,10,3.0,5.0,65,0.00,,,0.00,Weather View 32 v70,2013-03-21 06:24:00,
2013-03-21 02:30:00,33.3,23.5,0.00,North,10,0.0,5.0,67,0.00,,,0.00,Weather View 32 v70,2013-03-21 06:30:00,
2013-03-21 02:45:00,33.4,23.7,0.00,North,10,0.0,5.0,67,0.00,,,0.00,Weather View 32 v70,2013-03-21 06:45:00,
2013-03-21 03:00:00,33.1,23.3,0.00,North,10,0.0,4.0,67,0.00,,,0.00,Weather View 32 v70,2013-03-21 07:00:00,
2013-03-21 03:15:00,33.3,23.5,0.00,North,10,0.0,3.0,67,0.00,,,0.00,Weather View 32 v70,2013-03-21 07:15:00,
2013-03-21 03:30:00,33.3,23.5,0.00,North,10,0.0,0.0,67,0.00,,,0.00,Weather View 32 v70,2013-03-21 07:30:00,
2013-03-21 03:45:00,33.3,23.1,0.00,North,10,0.0,0.0,66,0.00,,,0.00,Weather View 32 v70,2013-03-21 07:45:00,
2013-03-21 04:00:00,33.1,21.5,0.00,North,3,3.0,4.0,62,0.00,,,0.00,Weather View 32 v70,2013-03-21 08:00:00,
2013-03-21 04:15:00,32.7,16.6,0.00,North,357,5.0,8.0,51,0.00,,,0.00,Weather View 32 v70,2013-03-21 08:15:00,
2013-03-21 04:30:00,32.4,16.2,0.00,North,3,3.0,8.0,51,0.00,,,0.00,Weather View 32 v70,2013-03-21 08:30:00,
2013-03-21 04:45:00,32.7,15.6,0.00,North,353,0.0,8.0,49,0.00,,,0.00,Weather View 32 v70,2013-03-21 08:45:00,
2013-03-21 05:00:00,32.5,15.9,0.00,North,2,2.0,8.0,50,0.00,,,0.00,Weather View 32 v70,2013-03-21 09:00:00,
2013-03-21 05:15:00,32.2,16.1,0.00,North,353,3.0,6.0,51,0.00,,,0.00,Weather View 32 v70,2013-03-21 09:15:00,
2013-03-21 05:30:00,32.4,17.1,0.00,North,357,2.0,6.0,53,0.00,,,0.00,Weather View 32 v70,2013-03-21 09:30:00,
2013-03-21 05:45:00,32.0,15.9,0.00,North,357,4.0,6.0,51,0.00,,,0.00,Weather View 32 v70,2013-03-21 09:45:00,
2013-03-21 06:00:00,31.6,13.2,0.00,NNW,342,4.0,8.0,46,0.00,,,0.00,Weather View 32 v70,2013-03-21 10:00:00,
2013-03-21 06:15:00,31.5,11.5,0.00,North,4,3.0,9.0,43,0.00,,,0.00,Weather View 32 v70,2013-03-21 10:15:00,
2013-03-21 06:30:00,31.5,11.5,0.00,NNE,29,5.0,9.0,43,0.00,,,0.00,Weather View 32 v70,2013-03-21 10:30:00,
2013-03-21 06:45:00,30.9,10.5,0.00,NNE,30,8.0,9.0,42,0.00,,,0.00,Weather View 32 v70,2013-03-21 10:45:00,
2013-03-21 07:00:00,30.4,10.0,0.00,NNE,12,0.0,9.0,42,0.00,,,0.00,Weather View 32 v70,2013-03-21 11:00:00,
2013-03-21 07:15:00,30.9,10.0,0.00,NNW,344,4.0,8.0,41,0.00,,,0.00,Weather View 32 v70,2013-03-21 11:15:00,
2013-03-21 07:30:00,30.9,10.0,0.00,NW,326,0.0,8.0,41,0.00,,,0.00,Weather View 32 v70,2013-03-21 11:30:00,
2013-03-21 07:45:00,30.9,9.4,0.00,ENE,75,6.0,8.0,40,0.00,,,0.00,Weather View 32 v70,2013-03-21 11:45:00,
2013-03-21 08:00:00,30.4,8.9,0.00,North,357,4.0,8.0,40,0.00,,,0.00,Weather View 32 v70,2013-03-21 12:00:00,
2013-03-21 08:15:00,30.9,9.4,0.00,NE,38,5.0,8.0,40,0.00,,,0.00,Weather View 32 v70,2013-03-21 12:15:00,
2013-03-21 08:30:00,30.9,9.4,0.00,NNE,30,5.0,9.0,40,0.00,,,0.00,Weather View 32 v70,2013-03-21 12:30:00,
2013-03-21 08:45:00,31.5,8.8,0.00,NW,326,2.0,9.0,38,0.00,,,0.00,Weather View 32 v70,2013-03-21 12:45:00,
2013-03-21 09:00:00,31.6,10.1,0.00,North,5,0.0,9.0,40,0.00,,,0.00,Weather View 32 v70,2013-03-21 13:00:00,
2013-03-21 09:15:00,32.2,9.4,0.00,NNE,21,4.0,9.0,38,0.00,,,0.00,Weather View 32 v70,2013-03-21 13:15:00,
2013-03-21 09:30:00,32.7,8.7,0.00,North,357,3.0,8.0,36,0.00,,,0.00,Weather View 32 v70,2013-03-21 13:30:00,
2013-03-21 09:45:00,33.3,10.4,0.00,NNW,336,3.0,11.0,38,0.00,,,0.00,Weather View 32 v70,2013-03-21 13:45:00,
2013-03-21 12:45:00,40.6,10.8,0.00,North,357,3.0,8.0,29,0.00,,,0.00,Weather View 32 v70,2013-03-21 16:45:00,
2013-03-21 13:00:00,43.0,12.1,0.00,NE,51,0.0,8.0,28,0.00,,,0.00,Weather View 32 v70,2013-03-21 17:00:00,
2013-03-21 13:15:00,43.3,12.4,0.00,North,357,4.0,8.0,28,0.00,,,0.00,Weather View 32 v70,2013-03-21 17:15:00,
2013-03-21 13:30:00,41.7,11.8,0.00,WNW,283,3.0,8.0,29,0.00,,,0.00,Weather View 32 v70,2013-03-21 17:30:00,
2013-03-21 13:45:00,43.0,12.1,0.00,NNE,18,2.0,8.0,28,0.00,,,0.00,Weather View 32 v70,2013-03-21 17:45:00,
2013-03-21 14:00:00,43.5,12.5,0.00,North,6,6.0,8.0,28,0.00,,,0.00,Weather View 32 v70,2013-03-21 18:00:00,
2013-03-21 14:15:00,42.1,9.6,0.00,WNW,288,5.0,8.0,26,0.00,,,0.00,Weather View 32 v70,2013-03-21 18:15:00,
2013-03-21 14:30:00,45.9,13.7,0.00,North,0,6.0,8.0,27,0.00,,,0.00,Weather View 32 v70,2013-03-21 18:30:00,
2013-03-21 14:45:00,48.7,15.3,0.00,North,11,6.0,9.0,26,0.00,,,0.00,Weather View 32 v70,2013-03-21 18:45:00,
2013-03-21 15:00:00,47.8,12.7,0.00,NE,44,4.0,10.0,24,0.00,,,0.00,Weather View 32 v70,2013-03-21 19:00:00,
2013-03-21 15:15:00,45.3,8.7,0.00,North,7,4.0,10.0,22,0.00,,,0.00,Weather View 32 v70,2013-03-21 19:15:00,
2013-03-21 15:30:00,47.3,12.3,0.00,North,11,7.0,10.0,24,0.00,,,0.00,Weather View 32 v70,2013-03-21 19:30:00,
2013-03-21 15:45:00,46.4,9.6,0.00,NE,39,4.0,10.0,22,0.00,,,0.00,Weather View 32 v70,2013-03-21 19:45:00,
2013-03-21 16:00:00,44.2,10.6,0.00,North,0,3.0,10.0,25,0.00,,,0.00,Weather View 32 v70,2013-03-21 20:00:00,
2013-03-21 16:15:00,43.2,7.8,0.00,NNW,340,3.0,8.0,23,0.00,,,0.00,Weather View 32 v70,2013-03-21 20:15:00,
2013-03-21 16:30:00,42.6,10.1,0.00,North,353,4.0,11.0,26,0.00,,,0.00,Weather View 32 v70,2013-03-21 20:30:00,
2013-03-21 16:35:00,42.6,10.1,0.00,North,353,4.0,11.0,26,0.00,,,0.00,Weather View 32 v70,2013-03-21 20:35:00,
2013-03-21 16:45:00,43.2,9.7,0.00,NNE,24,3.0,11.0,25,0.00,,,0.00,Weather View 32 v70,2013-03-21 20:45:00,
2013-03-21 17:00:00,45.1,8.5,0.00,West,264,3.0,11.0,22,0.00,,,0.00,Weather View 32 v70,2013-03-21 21:00:00,
2013-03-21 17:15:00,43.7,8.3,0.00,NW,309,4.0,11.0,23,0.00,,,0.00,Weather View 32 v70,2013-03-21 21:15:00,
2013-03-21 17:30:00,42.4,7.2,0.00,NW,314,4.0,9.0,23,0.00,,,0.00,Weather View 32 v70,2013-03-21 21:30:00,
2013-03-21 17:36:00,42.4,7.2,0.00,NW,314,4.0,9.0,23,0.00,,,0.00,Weather View 32 v70,2013-03-21 21:36:00,
2013-03-21 17:45:00,39.7,4.9,0.00,WNW,285,8.0,11.0,23,0.00,,,0.00,Weather View 32 v70,2013-03-21 21:45:00,
2013-03-21 18:00:00,45.0,8.4,0.00,North,4,4.0,11.0,22,0.00,,,0.00,Weather View 32 v70,2013-03-21 22:00:00,
2013-03-21 18:15:00,45.0,8.4,0.00,North,11,4.0,11.0,22,0.00,,,0.00,Weather View 32 v70,2013-03-21 22:15:00,
2013-03-21 18:30:00,45.7,9.0,0.00,NW,320,4.0,11.0,22,0.00,,,0.00,Weather View 32 v70,2013-03-21 22:30:00,
2013-03-21 18:36:00,45.7,9.0,0.00,NW,320,4.0,11.0,22,0.00,,,0.00,Weather View 32 v70,2013-03-21 22:36:00,
2013-03-21 18:45:00,42.8,7.5,0.00,West,276,4.0,10.0,23,0.00,,,0.00,Weather View 32 v70,2013-03-21 22:45:00,
2013-03-21 19:00:00,37.9,4.3,0.00,WNW,285,6.0,11.0,24,0.00,,,0.00,Weather View 32 v70,2013-03-21 23:00:00,
2013-03-21 19:15:00,36.5,3.1,0.00,NNW,339,5.0,11.0,24,0.00,,,0.00,Weather View 32 v70,2013-03-21 23:15:00,
2013-03-21 19:30:00,35.8,5.0,0.00,WNW,298,4.0,11.0,27,0.00,,,0.00,Weather View 32 v70,2013-03-21 23:30:00,
2013-03-21 19:37:00,35.8,5.0,0.00,WNW,298,4.0,11.0,27,0.00,,,0.00,Weather View 32 v70,2013-03-21 23:37:00,
2013-03-21 19:45:00,34.9,4.3,0.00,NW,317,6.0,11.0,27,0.00,,,0.00,Weather View 32 v70,2013-03-21 23:45:00,
2013-03-21 20:00:00,34.0,5.8,0.00,WNW,291,6.0,11.0,30,0.00,,,0.00,Weather View 32 v70,2013-03-22 00:00:00,
2013-03-21 20:15:00,34.0,5.8,0.00,West,281,3.0,10.0,30,0.00,,,0.00,Weather View 32 v70,2013-03-22 00:15:00,
2013-03-21 20:30:00,33.4,5.3,0.00,NW,324,5.0,11.0,30,0.00,,,0.00,Weather View 32 v70,2013-03-22 00:30:00,
2013-03-21 20:37:00,33.4,5.3,0.00,NW,324,5.0,11.0,30,0.00,,,0.00,Weather View 32 v70,2013-03-22 00:37:00,
2013-03-21 20:45:00,33.3,5.1,0.00,NW,326,3.0,11.0,30,0.00,,,0.00,Weather View 32 v70,2013-03-22 00:45:00,
2013-03-21 21:00:00,32.7,4.7,0.00,WSW,243,4.0,11.0,30,0.00,,,0.00,Weather View 32 v70,2013-03-22 01:00:00,
2013-03-21 21:15:00,32.7,5.4,0.00,North,353,3.0,11.0,31,0.00,,,0.00,Weather View 32 v70,2013-03-22 01:15:00,
2013-03-21 21:30:00,32.5,5.2,0.00,NW,317,3.0,9.0,31,0.00,,,0.00,Weather View 32 v70,2013-03-22 01:30:00,
2013-03-21 21:38:00,32.5,5.2,0.00,NW,317,3.0,9.0,31,0.00,,,0.00,Weather View 32 v70,2013-03-22 01:38:00,
2013-03-21 21:45:00,32.4,5.8,0.00,NW,319,6.0,9.0,32,0.00,,,0.00,Weather View 32 v70,2013-03-22 01:45:00,
2013-03-21 22:00:00,31.8,6.0,0.00,NNW,342,3.0,11.0,33,0.00,,,0.00,Weather View 32 v70,2013-03-22 02:00:00,
2013-03-21 22:15:00,31.6,5.8,0.00,NNW,340,8.0,11.0,33,0.00,,,0.00,Weather View 32 v70,2013-03-22 02:15:00,
2013-03-21 22:30:00,31.5,5.6,0.00,NW,318,8.0,11.0,33,0.00,,,0.00,Weather View 32 v70,2013-03-22 02:30:00,
2013-03-21 22:39:00,31.5,5.6,0.00,NW,318,8.0,11.0,33,0.00,,,0.00,Weather View 32 v70,2013-03-22 02:39:00,
2013-03-21 22:45:00,30.9,5.2,0.00,NNW,331,6.0,12.0,33,0.00,,,0.00,Weather View 32 v70,2013-03-22 02:45:00,
2013-03-21 23:00:00,30.9,5.2,0.00,North,357,8.0,12.0,33,0.00,,,0.00,Weather View 32 v70,2013-03-22 03:00:00,
2013-03-21 23:15:00,30.7,5.0,0.00,SSW,211,6.0,12.0,33,0.00,,,0.00,Weather View 32 v70,2013-03-22 03:15:00,
2013-03-21 23:30:00,30.2,5.2,0.00,NNW,342,3.0,12.0,34,0.00,,,0.00,Weather View 32 v70,2013-03-22 03:30:00,
2013-03-21 23:39:00,30.2,5.2,0.00,NNW,342,3.0,12.0,34,0.00,,,0.00,Weather View 32 v70,2013-03-22 03:39:00,
2013-03-21 23:45:00,30.0,5.0,0.00,NW,310,5.0,11.0,34,0.00,,,0.00,Weather View 32 v70,2013-03-22 03:45:00,